Time;durP1;ratioP1;P1;durP2;ratioP2;P2;SDS_P1;SDS_P2;PMS_P1;PMS_P2;Temp;Humidity;BMP_temperature;BMP_pressure;BME280_temperature;BME280_humidity;BME280_pressure;Samples;Min_cycle;Max_cycle;Signal;HPM_P1;HPM_P2
2023/04/03 00:01:47;;;;;;;9.70;5.87;;;6.00;99.90;;;;;;5046494;28;20653;-32
2023/04/03 00:04:20;;;;;;;7.60;5.13;;;6.00;99.90;;;;;;5048093;28;20212;-33
2023/04/03 00:06:47;;;;;;;6.20;4.90;;;5.90;99.90;;;;;;5047833;28;20258;-33
2023/04/03 00:09:21;;;;;;;8.13;5.90;;;5.90;99.90;;;;;;5047967;28;20391;-32
2023/04/03 00:11:50;;;;;;;6.93;5.43;;;5.90;99.90;;;;;;5047967;28;20307;-33
2023/04/03 00:14:17;;;;;;;7.17;5.40;;;5.90;99.90;;;;;;5046559;28;20212;-33
2023/04/03 00:16:45;;;;;;;7.73;5.30;;;5.90;99.90;;;;;;5047807;28;20638;-32
2023/04/03 00:19:14;;;;;;;8.60;5.83;;;5.80;99.90;;;;;;5046092;28;20596;-33
2023/04/03 00:21:42;;;;;;;6.30;5.00;;;5.80;99.90;;;;;;5046329;28;20604;-33
2023/04/03 00:24:11;;;;;;;8.33;5.80;;;5.80;99.90;;;;;;5029778;28;20274;-33
2023/04/03 00:26:41;;;;;;;6.23;5.57;;;5.80;99.90;;;;;;5047741;28;20339;-33
2023/04/03 00:29:11;;;;;;;7.93;5.47;;;5.70;99.90;;;;;;5047656;28;20220;-32
2023/04/03 00:31:40;;;;;;;7.30;5.03;;;5.80;99.90;;;;;;5045364;28;20315;-33
2023/04/03 00:34:10;;;;;;;7.60;5.13;;;5.70;99.90;;;;;;5047797;28;20188;-32
2023/04/03 00:36:40;;;;;;;7.93;5.23;;;5.70;99.90;;;;;;5045955;28;20262;-33
2023/04/03 00:39:10;;;;;;;12.07;5.60;;;5.70;99.90;;;;;;5047416;28;20226;-32
2023/04/03 00:41:40;;;;;;;6.70;5.17;;;5.70;99.90;;;;;;5046204;28;20219;-33
2023/04/03 00:44:43;;;;;;;8.67;5.47;;;5.60;99.90;;;;;;5047259;28;20206;-33
2023/04/03 00:47:16;;;;;;;7.70;5.30;;;5.60;99.90;;;;;;5044138;28;20204;-33
2023/04/03 00:49:46;;;;;;;8.50;5.33;;;5.60;99.90;;;;;;5046835;28;20338;-33
2023/04/03 00:52:17;;;;;;;7.10;5.33;;;5.60;99.90;;;;;;5045641;28;20216;-32
2023/04/03 00:54:47;;;;;;;7.10;5.53;;;5.50;99.90;;;;;;5045720;28;20263;-33
2023/04/03 00:57:20;;;;;;;7.30;5.43;;;5.50;99.90;;;;;;5045819;28;20208;-33
2023/04/03 00:59:59;;;;;;;7.33;5.10;;;5.50;99.90;;;;;;5045977;28;20200;-33
2023/04/03 01:02:27;;;;;;;8.87;5.90;;;5.50;99.90;;;;;;5047085;28;20753;-33
2023/04/03 01:04:54;;;;;;;8.03;5.60;;;5.50;99.90;;;;;;5009435;28;20627;-33
2023/04/03 01:07:26;;;;;;;8.63;5.27;;;5.50;99.90;;;;;;5034196;28;20588;-33
2023/04/03 01:09:58;;;;;;;6.67;5.63;;;5.50;99.90;;;;;;5044311;28;20915;-32
2023/04/03 01:12:32;;;;;;;8.50;5.77;;;5.40;99.90;;;;;;5045522;28;20295;-33
2023/04/03 01:15:08;;;;;;;7.40;5.63;;;5.40;99.90;;;;;;5042294;28;20188;-33
2023/04/03 01:17:35;;;;;;;8.70;5.07;;;5.40;99.90;;;;;;5038973;28;20207;-33
2023/04/03 01:20:12;;;;;;;6.87;5.40;;;5.40;99.90;;;;;;5045409;28;20295;-32
2023/04/03 01:22:48;;;;;;;8.77;5.20;;;5.40;99.90;;;;;;5046086;28;20255;-33
2023/04/03 01:25:17;;;;;;;6.53;5.67;;;5.40;99.90;;;;;;5045277;28;20285;-32
2023/04/03 01:27:44;;;;;;;9.40;5.93;;;5.30;99.90;;;;;;5046811;28;20613;-33
2023/04/03 01:30:18;;;;;;;8.50;5.70;;;5.20;99.90;;;;;;5045363;28;20267;-33
2023/04/03 01:32:47;;;;;;;8.07;5.73;;;5.20;99.90;;;;;;5044099;28;20216;-33
2023/04/03 01:35:15;;;;;;;7.50;5.33;;;5.10;99.90;;;;;;5046916;28;20196;-33
2023/04/03 01:37:46;;;;;;;9.03;5.40;;;5.10;99.90;;;;;;5046697;28;20526;-33
2023/04/03 01:40:15;;;;;;;7.40;5.47;;;5.10;99.90;;;;;;5045823;28;20425;-33
2023/04/03 01:42:42;;;;;;;6.57;5.27;;;5.00;99.90;;;;;;5045398;28;20211;-33
2023/04/03 01:45:15;;;;;;;7.13;5.10;;;5.00;99.90;;;;;;5046741;28;20228;-32
2023/04/03 01:47:42;;;;;;;8.17;5.20;;;5.00;99.90;;;;;;5046757;28;20622;-33
2023/04/03 01:50:09;;;;;;;8.10;5.37;;;5.00;99.90;;;;;;5045088;28;20228;-33
2023/04/03 01:52:38;;;;;;;6.87;5.43;;;5.00;99.90;;;;;;5045025;28;20192;-33
2023/04/03 01:55:06;;;;;;;7.63;5.17;;;5.00;99.90;;;;;;5044741;28;20707;-33
2023/04/03 01:57:35;;;;;;;9.30;5.87;;;5.00;99.90;;;;;;5046783;28;20299;-32
2023/04/03 02:00:03;;;;;;;6.80;4.80;;;5.00;99.90;;;;;;5045254;28;20295;-33
2023/04/03 02:02:33;;;;;;;8.93;5.40;;;5.00;99.90;;;;;;5046400;28;20206;-33
2023/04/03 02:05:03;;;;;;;7.03;5.30;;;5.00;99.90;;;;;;5046202;28;20212;-32
2023/04/03 02:07:30;;;;;;;8.67;5.50;;;5.00;99.90;;;;;;5044966;28;20780;-32
2023/04/03 02:09:57;;;;;;;7.00;5.80;;;4.90;99.90;;;;;;5044958;28;20779;-32
2023/04/03 02:12:24;;;;;;;5.70;5.10;;;4.90;99.90;;;;;;5046159;28;20282;-32
2023/04/03 02:14:52;;;;;;;7.97;5.00;;;4.90;99.90;;;;;;5045001;28;20208;-32
2023/04/03 02:17:21;;;;;;;10.07;5.30;;;4.90;99.90;;;;;;5045233;28;20208;-32
2023/04/03 02:19:51;;;;;;;5.70;5.10;;;4.90;99.90;;;;;;5046493;28;20730;-32
2023/04/03 02:22:19;;;;;;;8.23;5.53;;;4.90;99.90;;;;;;5046091;28;20258;-32
2023/04/03 02:24:48;;;;;;;7.73;5.60;;;4.80;99.90;;;;;;5046418;28;20224;-32
2023/04/03 02:27:20;;;;;;;7.30;4.70;;;4.80;99.90;;;;;;5046291;28;20622;-32
2023/04/03 02:29:48;;;;;;;7.87;5.53;;;4.80;99.90;;;;;;5046305;28;20222;-32
2023/04/03 02:32:15;;;;;;;6.27;5.10;;;4.80;99.90;;;;;;5046267;28;20717;-32
2023/04/03 02:34:42;;;;;;;9.43;6.30;;;4.70;99.90;;;;;;5044712;28;20288;-32
2023/04/03 02:37:11;;;;;;;8.77;5.73;;;4.70;99.90;;;;;;5046510;28;20199;-32
2023/04/03 02:39:39;;;;;;;6.93;5.50;;;4.70;99.90;;;;;;5045809;28;20200;-32
2023/04/03 02:42:07;;;;;;;7.87;5.83;;;4.70;99.90;;;;;;5044627;28;20706;-33
2023/04/03 02:44:35;;;;;;;7.37;6.10;;;4.70;99.90;;;;;;5044558;28;20310;-32
2023/04/03 02:47:05;;;;;;;8.03;6.30;;;4.70;99.90;;;;;;5045827;28;20219;-32
2023/04/03 02:49:32;;;;;;;8.60;6.07;;;4.70;99.90;;;;;;5045873;28;20327;-32
2023/04/03 02:51:59;;;;;;;7.30;5.87;;;4.70;99.90;;;;;;5044538;28;20230;-32
2023/04/03 02:54:30;;;;;;;7.33;6.00;;;4.70;99.90;;;;;;5048378;28;20631;-33
2023/04/03 02:57:00;;;;;;;8.13;6.00;;;4.70;99.90;;;;;;5050179;28;20220;-32
2023/04/03 02:59:27;;;;;;;8.87;6.50;;;4.70;99.90;;;;;;5049450;28;20227;-32
2023/04/03 03:01:55;;;;;;;9.10;6.63;;;4.70;99.90;;;;;;5048256;28;21059;-32
2023/04/03 03:04:23;;;;;;;8.57;7.20;;;4.70;99.90;;;;;;5048514;28;20313;-32
2023/04/03 03:06:52;;;;;;;8.23;6.57;;;4.60;99.90;;;;;;5049448;28;20204;-32
2023/04/03 03:09:21;;;;;;;8.63;7.00;;;4.60;99.90;;;;;;5048202;28;20699;-32
2023/04/03 03:11:49;;;;;;;7.10;6.27;;;4.60;99.90;;;;;;5048472;28;20224;-32
2023/04/03 03:14:16;;;;;;;7.00;6.27;;;4.50;99.90;;;;;;5049443;28;20291;-33
2023/04/03 03:16:48;;;;;;;9.07;6.37;;;4.50;99.90;;;;;;5048320;28;20254;-32
2023/04/03 03:19:17;;;;;;;9.60;6.40;;;4.50;99.90;;;;;;5049934;28;20204;-32
2023/04/03 03:21:51;;;;;;;8.43;6.33;;;4.50;99.90;;;;;;5048269;28;20192;-32
2023/04/03 03:24:23;;;;;;;7.33;6.10;;;4.40;99.90;;;;;;5048453;28;20219;-32
2023/04/03 03:26:53;;;;;;;9.43;6.70;;;4.40;99.90;;;;;;5049432;28;20197;-32
2023/04/03 03:29:20;;;;;;;8.53;6.27;;;4.40;99.90;;;;;;5049369;28;20252;-32
2023/04/03 03:31:50;;;;;;;7.03;6.00;;;4.40;99.90;;;;;;5049421;28;20282;-32
2023/04/03 03:34:17;;;;;;;8.40;6.43;;;4.30;99.90;;;;;;5049451;28;20752;-32
2023/04/03 03:36:45;;;;;;;10.50;6.30;;;4.40;99.90;;;;;;5049039;28;20201;-33
2023/04/03 03:39:16;;;;;;;8.43;5.97;;;4.30;99.90;;;;;;5047602;28;20197;-32
2023/04/03 03:41:43;;;;;;;7.63;5.83;;;4.40;99.90;;;;;;5048623;28;20315;-32
2023/04/03 03:44:10;;;;;;;9.10;6.30;;;4.30;99.90;;;;;;5048073;28;20678;-32
2023/04/03 03:46:37;;;;;;;9.50;6.77;;;4.30;99.90;;;;;;5048938;28;20208;-32
2023/04/03 03:49:05;;;;;;;7.80;6.57;;;4.30;99.90;;;;;;5014857;28;20230;-32
2023/04/03 03:51:32;;;;;;;9.30;6.50;;;4.30;99.90;;;;;;5047371;28;20671;-32
2023/04/03 03:54:01;;;;;;;8.10;6.43;;;4.30;99.90;;;;;;5048605;28;20209;-32
2023/04/03 03:56:36;;;;;;;8.10;6.33;;;4.30;99.90;;;;;;5048490;28;20242;-32
2023/04/03 03:59:05;;;;;;;8.80;6.53;;;4.30;99.90;;;;;;5047445;28;20682;-32
2023/04/03 04:01:37;;;;;;;8.93;5.97;;;4.20;99.90;;;;;;5048426;28;20685;-32
2023/04/03 04:04:04;;;;;;;8.87;6.93;;;4.20;99.90;;;;;;5048591;28;20196;-35
2023/04/03 04:06:32;;;;;;;9.93;7.20;;;4.20;99.90;;;;;;5045723;28;20200;-32
2023/04/03 04:09:01;;;;;;;7.80;6.40;;;4.20;99.90;;;;;;5046981;28;20737;-32
2023/04/03 04:11:28;;;;;;;8.80;6.37;;;4.20;99.90;;;;;;5048919;28;20347;-33
2023/04/03 04:13:58;;;;;;;7.63;6.27;;;4.20;99.90;;;;;;5046935;28;20213;-32
2023/04/03 04:16:27;;;;;;;8.77;6.07;;;4.10;99.90;;;;;;5048309;28;20211;-34
2023/04/03 04:18:59;;;;;;;9.67;6.77;;;4.10;99.90;;;;;;5046891;28;20311;-31
2023/04/03 04:21:26;;;;;;;7.27;6.27;;;4.10;99.90;;;;;;5048644;28;20287;-33
2023/04/03 04:23:54;;;;;;;9.23;6.90;;;4.10;99.90;;;;;;5048455;28;20642;-32
2023/04/03 04:26:25;;;;;;;8.90;6.83;;;4.00;99.90;;;;;;5048282;28;20695;-32
2023/04/03 04:28:53;;;;;;;10.10;7.17;;;4.10;99.90;;;;;;5046614;28;20208;-32
2023/04/03 04:31:27;;;;;;;9.30;6.90;;;4.10;99.90;;;;;;5047853;28;20250;-32
2023/04/03 04:33:56;;;;;;;9.00;6.73;;;4.00;99.90;;;;;;5046522;28;20278;-32
2023/04/03 04:36:24;;;;;;;7.33;6.50;;;4.00;99.90;;;;;;5048370;28;20212;-33
2023/04/03 04:38:55;;;;;;;10.50;6.97;;;4.00;99.90;;;;;;5047846;28;20598;-32
2023/04/03 04:41:22;;;;;;;11.80;7.20;;;3.90;99.90;;;;;;5046559;28;20586;-32
2023/04/03 04:43:52;;;;;;;9.80;6.83;;;3.90;99.90;;;;;;5048334;28;20207;-32
2023/04/03 04:46:21;;;;;;;9.70;7.70;;;3.90;99.90;;;;;;5047606;28;20227;-32
2023/04/03 04:48:51;;;;;;;9.63;6.83;;;3.90;99.90;;;;;;5047969;28;20297;-32
2023/04/03 04:51:20;;;;;;;10.67;6.80;;;3.90;99.90;;;;;;5046504;28;20231;-32
2023/04/03 04:53:47;;;;;;;8.67;7.43;;;3.90;99.90;;;;;;5045916;28;20197;-32
2023/04/03 04:56:17;;;;;;;11.43;7.63;;;3.90;99.90;;;;;;5045945;28;20232;-32
2023/04/03 04:58:46;;;;;;;10.17;7.37;;;3.90;99.90;;;;;;5046120;28;20304;-32
2023/04/03 05:01:16;;;;;;;8.43;6.97;;;3.90;99.90;;;;;;5045994;28;20200;-32
2023/04/03 05:03:46;;;;;;;9.57;7.57;;;3.90;99.90;;;;;;5047671;28;20216;-32
2023/04/03 05:06:13;;;;;;;9.33;6.70;;;3.90;99.90;;;;;;5046260;28;20788;-33
2023/04/03 05:08:42;;;;;;;9.33;7.07;;;3.80;99.90;;;;;;5046147;28;20358;-32
2023/04/03 05:11:14;;;;;;;8.80;7.17;;;3.80;99.90;;;;;;5045705;28;20246;-32
2023/04/03 05:13:46;;;;;;;8.13;7.33;;;3.80;99.90;;;;;;5046491;28;20218;-32
2023/04/03 05:16:15;;;;;;;10.30;6.97;;;3.70;99.90;;;;;;5047315;28;20196;-33
2023/04/03 05:18:45;;;;;;;8.20;7.23;;;3.70;99.90;;;;;;5047362;28;20277;-32
2023/04/03 05:21:14;;;;;;;9.57;6.90;;;3.70;99.90;;;;;;5047212;28;20254;-32
2023/04/03 05:23:41;;;;;;;8.63;7.40;;;3.70;99.90;;;;;;5045414;28;20217;-32
2023/04/03 05:26:08;;;;;;;9.20;7.43;;;3.70;99.90;;;;;;5045557;28;20204;-32
2023/04/03 05:28:38;;;;;;;8.80;7.67;;;3.70;99.90;;;;;;5047305;28;20505;-32
2023/04/03 05:31:05;;;;;;;9.80;8.03;;;3.70;99.90;;;;;;5045312;28;20385;-36
2023/04/03 05:33:34;;;;;;;9.50;7.60;;;3.70;99.90;;;;;;5045503;28;20204;-32
2023/04/03 05:36:08;;;;;;;8.63;7.60;;;3.70;99.90;;;;;;5046605;28;20225;-32
2023/04/03 05:38:39;;;;;;;10.73;8.67;;;3.70;99.90;;;;;;5045443;28;20211;-32
2023/04/03 05:41:08;;;;;;;11.00;7.80;;;3.80;99.90;;;;;;5045339;28;20200;-33
2023/04/03 05:43:38;;;;;;;11.10;8.00;;;3.80;99.90;;;;;;5045240;28;20570;-32
2023/04/03 05:46:11;;;;;;;11.63;8.40;;;3.80;99.90;;;;;;5047269;28;20215;-32
2023/04/03 05:48:42;;;;;;;9.77;8.10;;;3.80;99.90;;;;;;5044914;28;20287;-33
2023/04/03 05:51:21;;;;;;;9.43;8.50;;;3.90;99.90;;;;;;5046517;28;20330;-31
2023/04/03 05:53:52;;;;;;;13.23;8.73;;;3.90;99.90;;;;;;5046788;28;20195;-33
2023/04/03 05:56:21;;;;;;;11.60;9.10;;;3.90;99.90;;;;;;5045002;28;20327;-32
2023/04/03 05:58:50;;;;;;;10.80;8.37;;;3.90;99.90;;;;;;5046082;28;20739;-32
2023/04/03 06:01:18;;;;;;;9.40;8.37;;;3.90;99.90;;;;;;5045236;28;20319;-32
2023/04/03 06:03:48;;;;;;;11.57;9.17;;;3.90;99.90;;;;;;5046115;28;20726;-33
2023/04/03 06:06:17;;;;;;;12.83;9.07;;;3.90;99.90;;;;;;5046243;28;20284;-32
2023/04/03 06:08:47;;;;;;;9.60;8.60;;;3.90;99.90;;;;;;5044878;28;20283;-34
2023/04/03 06:11:19;;;;;;;10.20;9.10;;;3.90;99.90;;;;;;5044677;28;20282;-32
2023/04/03 06:13:46;;;;;;;13.27;9.40;;;4.00;99.90;;;;;;5046245;28;20200;-33
2023/04/03 06:16:20;;;;;;;11.00;9.13;;;3.90;99.90;;;;;;5045841;28;20277;-33
2023/04/03 06:18:50;;;;;;;11.63;9.43;;;4.00;99.90;;;;;;5046085;28;20283;-33
2023/04/03 06:21:17;;;;;;;13.03;10.07;;;4.00;99.90;;;;;;5046183;28;20635;-33
2023/04/03 06:23:46;;;;;;;11.47;9.17;;;4.10;99.90;;;;;;5046129;28;20204;-33
2023/04/03 06:26:13;;;;;;;11.97;9.63;;;4.10;99.90;;;;;;5044650;28;20629;-33
2023/04/03 06:28:41;;;;;;;10.53;9.23;;;4.10;99.90;;;;;;5043663;28;20215;-33
2023/04/03 06:31:08;;;;;;;11.00;9.17;;;4.10;99.90;;;;;;5044575;28;20230;-33
2023/04/03 06:33:38;;;;;;;13.03;10.37;;;4.10;99.90;;;;;;5045781;28;20193;-33
2023/04/03 06:36:08;;;;;;;13.63;9.97;;;4.10;99.90;;;;;;5027756;28;20694;-33
2023/04/03 06:38:36;;;;;;;13.53;10.87;;;4.20;99.90;;;;;;5044411;28;20205;-33
2023/04/03 06:41:03;;;;;;;12.17;10.03;;;4.20;99.90;;;;;;5046072;28;20324;-33
2023/04/03 06:43:33;;;;;;;16.03;10.57;;;4.20;99.90;;;;;;5044371;28;20287;-33
2023/04/03 06:46:05;;;;;;;13.90;10.23;;;4.20;99.90;;;;;;5045972;28;20215;-33
2023/04/03 06:48:37;;;;;;;13.80;10.40;;;4.20;99.90;;;;;;5044539;28;20211;-33
2023/04/03 06:51:05;;;;;;;15.63;10.50;;;4.30;99.90;;;;;;5044404;28;20763;-33
2023/04/03 06:53:34;;;;;;;12.17;10.07;;;4.30;99.90;;;;;;5045795;28;20212;-33
2023/04/03 06:56:07;;;;;;;11.67;10.00;;;4.30;99.90;;;;;;5027983;28;20227;-32
2023/04/03 06:58:37;;;;;;;10.43;9.03;;;4.40;99.90;;;;;;5046041;28;20295;-34
2023/04/03 07:01:04;;;;;;;14.13;9.50;;;4.40;99.90;;;;;;5044394;28;20297;-33
2023/04/03 07:03:37;;;;;;;15.93;9.83;;;4.40;99.90;;;;;;5045322;28;20736;-34
2023/04/03 07:06:10;;;;;;;10.93;9.30;;;4.40;99.90;;;;;;5045873;28;20725;-33
2023/04/03 07:08:39;;;;;;;10.33;9.03;;;4.50;99.90;;;;;;5027910;28;20586;-32
2023/04/03 07:11:06;;;;;;;11.83;9.43;;;4.50;99.90;;;;;;5044209;28;20230;-33
2023/04/03 07:13:39;;;;;;;12.50;9.03;;;4.50;99.90;;;;;;5044274;28;20231;-33
2023/04/03 07:16:08;;;;;;;12.67;9.00;;;4.60;99.90;;;;;;5045532;28;20311;-33
2023/04/03 07:18:37;;;;;;;10.93;8.90;;;4.60;99.90;;;;;;5045204;28;20200;-33
2023/04/03 07:21:05;;;;;;;10.10;7.90;;;4.70;99.90;;;;;;5043958;28;20204;-33
2023/04/03 07:23:32;;;;;;;10.43;8.50;;;4.70;99.90;;;;;;5044078;28;20212;-33
2023/04/03 07:26:02;;;;;;;11.17;8.57;;;4.70;99.90;;;;;;5044124;28;20196;-33
2023/04/03 07:28:30;;;;;;;12.90;8.07;;;4.80;99.90;;;;;;5043824;28;20223;-35
2023/04/03 07:31:13;;;;;;;12.87;8.80;;;4.80;99.90;;;;;;5043828;28;20718;-33
2023/04/03 07:33:40;;;;;;;10.80;8.50;;;4.90;99.90;;;;;;5045546;28;20239;-32
2023/04/03 07:36:08;;;;;;;9.47;7.93;;;4.90;99.90;;;;;;5045251;28;20618;-33
2023/04/03 07:38:36;;;;;;;12.63;8.30;;;4.90;99.90;;;;;;5044109;28;20228;-33
2023/04/03 07:41:06;;;;;;;10.93;7.70;;;5.00;99.90;;;;;;5030134;28;20212;-33
2023/04/03 07:43:36;;;;;;;10.97;7.80;;;5.00;99.90;;;;;;5048794;28;20257;-33
2023/04/03 07:46:05;;;;;;;10.93;8.23;;;5.10;99.90;;;;;;5048997;28;20666;-33
2023/04/03 07:48:32;;;;;;;9.00;6.80;;;5.10;99.90;;;;;;5048874;28;20523;-33
2023/04/03 07:51:03;;;;;;;13.37;8.97;;;5.20;99.90;;;;;;5048299;28;20243;-33
2023/04/03 07:53:34;;;;;;;10.93;8.23;;;5.30;99.90;;;;;;5048677;28;20745;-33
2023/04/03 07:56:09;;;;;;;17.03;9.17;;;5.30;99.90;;;;;;5048523;28;20236;-32
2023/04/03 07:58:37;;;;;;;11.87;7.93;;;5.40;99.90;;;;;;5048541;28;20296;-33
2023/04/03 08:01:07;;;;;;;10.57;7.60;;;5.40;99.90;;;;;;5049024;28;20204;-33
2023/04/03 08:03:39;;;;;;;9.33;6.87;;;5.40;99.90;;;;;;5031340;28;20323;-32
2023/04/03 08:06:08;;;;;;;11.03;6.87;;;5.50;99.90;;;;;;5031213;28;20953;-32
2023/04/03 08:08:42;;;;;;;7.90;6.27;;;5.60;99.90;;;;;;5048645;28;20271;-33
2023/04/03 08:11:10;;;;;;;10.77;6.73;;;5.60;99.90;;;;;;5046752;28;20319;-32
2023/04/03 08:13:41;;;;;;;11.33;6.70;;;5.60;99.90;;;;;;5046823;28;20200;-33
2023/04/03 08:16:20;;;;;;;9.93;6.67;;;5.70;99.90;;;;;;5048251;28;20206;-33
2023/04/03 08:18:50;;;;;;;9.83;6.37;;;5.70;99.90;;;;;;5048585;28;20196;-33
2023/04/03 08:21:20;;;;;;;9.73;6.80;;;5.80;99.90;;;;;;5030192;28;20278;-33
2023/04/03 08:23:52;;;;;;;12.40;6.43;;;5.80;99.90;;;;;;5046807;28;20270;-33
2023/04/03 08:26:22;;;;;;;11.17;5.80;;;5.90;99.90;;;;;;5046816;28;20283;-33
2023/04/03 08:28:50;;;;;;;10.80;6.03;;;5.90;99.90;;;;;;5030214;28;20295;-33
2023/04/03 08:31:21;;;;;;;12.47;6.00;;;5.90;99.90;;;;;;5047988;28;20726;-33
2023/04/03 08:33:50;;;;;;;8.80;6.17;;;6.00;99.90;;;;;;5048049;28;20257;-32
2023/04/03 08:36:24;;;;;;;9.63;5.97;;;6.00;99.90;;;;;;5046473;28;20208;-33
2023/04/03 08:38:55;;;;;;;10.40;5.60;;;6.10;99.90;;;;;;5048289;28;20668;-32
2023/04/03 08:41:34;;;;;;;7.67;5.00;;;6.00;99.90;;;;;;5045988;28;20303;-33
2023/04/03 08:44:22;;;;;;;8.47;5.13;;;6.10;99.90;;;;;;5046300;28;20250;-33
2023/04/03 08:47:01;;;;;;;7.30;5.07;;;6.20;99.90;;;;;;5047976;28;20200;-32
2023/04/03 08:49:33;;;;;;;7.43;4.47;;;6.20;99.90;;;;;;5047857;28;20220;-32
2023/04/03 08:52:12;;;;;;;6.73;4.73;;;6.20;99.90;;;;;;5045615;28;20256;-32
2023/04/03 08:54:53;;;;;;;7.13;4.63;;;6.30;99.90;;;;;;5047509;28;20295;-33
2023/04/03 08:57:42;;;;;;;8.63;4.50;;;6.40;99.90;;;;;;5046142;28;20196;-32
2023/04/03 09:00:22;;;;;;;6.23;4.13;;;6.40;99.90;;;;;;5045798;28;20208;-33
2023/04/03 09:02:50;;;;;;;6.37;3.70;;;6.40;99.90;;;;;;5046065;28;20203;-33
2023/04/03 09:05:55;;;;;;;8.53;3.87;;;6.50;99.90;;;;;;5046042;28;20244;-32
2023/04/03 09:08:22;;;;;;;7.87;3.87;;;6.60;99.90;;;;;;5045560;28;20218;-33
2023/04/03 09:11:12;;;;;;;7.07;3.60;;;6.50;99.90;;;;;;5047377;28;20282;-33
2023/04/03 09:13:45;;;;;;;6.20;3.33;;;6.60;99.90;;;;;;5045643;28;20310;-33
2023/04/03 09:16:32;;;;;;;8.80;3.33;;;6.60;99.90;;;;;;5047059;28;20204;-32
2023/04/03 09:19:28;;;;;;;5.50;3.13;;;6.70;99.90;;;;;;5047184;28;20212;-32
2023/04/03 09:22:26;;;;;;;6.93;3.37;;;6.80;99.90;;;;;;5045384;28;20495;-32
2023/04/03 09:25:11;;;;;;;7.70;3.37;;;6.80;99.90;;;;;;5047342;28;20224;-32
2023/04/03 09:27:39;;;;;;;6.40;3.67;;;6.90;99.90;;;;;;5045760;28;20761;-32
2023/04/03 09:30:13;;;;;;;7.07;3.27;;;6.90;99.90;;;;;;5045424;28;20207;-32
2023/04/03 09:32:46;;;;;;;8.87;3.60;;;7.00;99.90;;;;;;5046884;28;20254;-32
2023/04/03 09:35:21;;;;;;;8.50;3.40;;;7.00;99.90;;;;;;5045334;28;20334;-33
2023/04/03 09:38:15;;;;;;;7.70;3.83;;;7.10;99.90;;;;;;5046878;28;20199;-32
2023/04/03 09:41:09;;;;;;;6.23;3.57;;;7.10;99.90;;;;;;5046589;28;20638;-34
2023/04/03 09:43:44;;;;;;;5.17;3.30;;;7.10;99.90;;;;;;5046456;28;20200;-33
2023/04/03 09:46:32;;;;;;;7.07;3.37;;;7.10;99.90;;;;;;5044893;28;20200;-33
2023/04/03 09:49:03;;;;;;;8.27;3.60;;;7.20;99.90;;;;;;5046856;28;20219;-33
2023/04/03 09:51:40;;;;;;;8.50;3.53;;;7.20;99.90;;;;;;5044830;28;20293;-32
2023/04/03 09:54:41;;;;;;;7.20;3.73;;;7.20;99.90;;;;;;5045092;28;20196;-33
2023/04/03 09:57:15;;;;;;;8.73;3.03;;;7.30;99.90;;;;;;5046595;28;20316;-33
2023/04/03 10:00:04;;;;;;;7.20;3.07;;;7.30;99.90;;;;;;5046833;28;20676;-32
2023/04/03 10:02:42;;;;;;;8.87;3.43;;;7.30;99.90;;;;;;5045679;28;20628;-32
2023/04/03 10:05:33;;;;;;;6.17;3.00;;;7.30;99.90;;;;;;5045375;28;20207;-33
2023/04/03 10:08:16;;;;;;;5.80;3.03;;;7.40;99.90;;;;;;5046200;28;20196;-33
2023/04/03 10:10:47;;;;;;;5.33;3.20;;;7.50;99.90;;;;;;5044911;28;20220;-33
2023/04/03 10:13:22;;;;;;;7.13;3.30;;;7.50;99.90;;;;;;5044816;28;20605;-33
2023/04/03 10:16:14;;;;;;;6.03;2.80;;;7.60;99.90;;;;;;5046045;28;20208;-33
2023/04/03 10:19:13;;;;;;;6.77;2.80;;;7.60;99.90;;;;;;5046162;28;20771;-33
2023/04/03 10:21:58;;;;;;;4.10;2.70;;;7.70;99.90;;;;;;5045275;28;20671;-33
2023/04/03 10:25:11;;;;;;;4.87;2.70;;;7.80;99.90;;;;;;5046047;28;20649;-32
2023/04/03 10:27:55;;;;;;;4.77;2.40;;;7.80;99.90;;;;;;5041951;28;20204;-32
2023/04/03 10:30:45;;;;;;;4.87;2.83;;;7.90;99.90;;;;;;5044216;28;20200;-33
2023/04/03 10:33:36;;;;;;;8.27;2.60;;;8.00;99.90;;;;;;5046054;28;20764;-33
2023/04/03 10:36:31;;;;;;;7.47;2.33;;;8.00;99.90;;;;;;5045787;28;20205;-32
2023/04/03 10:39:01;;;;;;;7.63;2.30;;;8.00;99.90;;;;;;5045429;28;20283;-33
2023/04/03 10:41:47;;;;;;;3.43;2.00;;;8.10;99.90;;;;;;5043396;28;20266;-33
2023/04/03 10:44:17;;;;;;;3.77;1.80;;;8.00;99.90;;;;;;5045154;28;20282;-33
2023/04/03 10:46:53;;;;;;;6.87;2.50;;;8.10;99.90;;;;;;5045326;28;20200;-32
2023/04/03 10:49:29;;;;;;;4.10;2.07;;;8.10;99.90;;;;;;5045455;28;20215;-32
2023/04/03 10:52:15;;;;;;;5.47;2.27;;;8.10;99.90;;;;;;5045626;28;20339;-32
2023/04/03 10:55:22;;;;;;;5.17;2.17;;;8.20;99.90;;;;;;5043540;28;20240;-32
2023/04/03 10:57:56;;;;;;;3.77;2.43;;;8.20;99.90;;;;;;5043731;28;20263;-32
2023/04/03 11:00:43;;;;;;;3.90;1.70;;;8.20;99.90;;;;;;5045040;28;20204;-32
2023/04/03 11:03:22;;;;;;;3.73;1.70;;;8.20;99.90;;;;;;5045205;28;20200;-32
2023/04/03 11:05:55;;;;;;;6.50;2.13;;;8.30;99.90;;;;;;5027217;28;20688;-32
2023/04/03 11:08:39;;;;;;;4.90;1.80;;;8.30;99.90;;;;;;5045156;28;20219;-32
2023/04/03 11:11:10;;;;;;;8.17;2.17;;;8.40;99.90;;;;;;5044942;28;20314;-32
2023/04/03 11:13:46;;;;;;;3.90;1.80;;;8.40;99.90;;;;;;5045055;28;20675;-32
2023/04/03 11:16:23;;;;;;;8.53;2.23;;;8.40;99.90;;;;;;5048734;28;20285;-32
2023/04/03 11:18:59;;;;;;;4.03;1.70;;;8.50;99.90;;;;;;5047122;28;20265;-32
2023/04/03 11:21:39;;;;;;;5.73;1.83;;;8.50;99.90;;;;;;5047114;28;20295;-32
2023/04/03 11:24:16;;;;;;;4.20;1.60;;;8.50;99.90;;;;;;5048542;28;20235;-32
2023/04/03 11:26:51;;;;;;;4.97;2.00;;;8.50;99.90;;;;;;5048730;28;20236;-32
2023/04/03 11:29:24;;;;;;;3.53;1.40;;;8.50;99.90;;;;;;5047095;28;20294;-33
2023/04/03 11:32:26;;;;;;;4.27;1.50;;;8.60;99.90;;;;;;5046988;28;20224;-32
2023/04/03 11:34:59;;;;;;;5.70;1.83;;;8.60;99.90;;;;;;5048571;28;20198;-32
2023/04/03 11:37:39;;;;;;;2.77;1.70;;;8.60;99.90;;;;;;5047356;28;20206;-32
2023/04/03 11:40:21;;;;;;;4.43;1.90;;;8.60;99.90;;;;;;5048605;28;20386;-32
2023/04/03 11:43:02;;;;;;;3.53;1.50;;;8.60;99.90;;;;;;5046716;28;20239;-32
2023/04/03 11:45:37;;;;;;;2.50;1.40;;;8.60;99.90;;;;;;5048441;28;20200;-32
2023/04/03 11:48:09;;;;;;;6.27;1.70;;;8.50;99.90;;;;;;5049081;28;20203;-32
2023/04/03 11:50:50;;;;;;;6.50;1.57;;;8.60;99.90;;;;;;5047704;28;20215;-33
2023/04/03 11:53:28;;;;;;;3.87;1.77;;;8.50;99.90;;;;;;5048519;28;20220;-32
2023/04/03 11:56:00;;;;;;;6.60;2.20;;;8.50;99.90;;;;;;5048374;28;20234;-32
2023/04/03 11:58:28;;;;;;;7.33;2.23;;;8.50;99.90;;;;;;5048024;28;20236;-33
2023/04/03 12:01:08;;;;;;;4.10;1.87;;;8.60;99.90;;;;;;5046364;28;20212;-33
2023/04/03 12:03:45;;;;;;;5.00;1.30;;;8.60;99.90;;;;;;5047669;28;20311;-32
2023/04/03 12:06:16;;;;;;;5.40;1.70;;;8.50;99.90;;;;;;5048215;28;20634;-32
2023/04/03 12:08:46;;;;;;;2.00;1.00;;;8.60;99.90;;;;;;5047891;28;20209;-32
2023/04/03 12:11:28;;;;;;;1.70;1.23;;;8.70;99.90;;;;;;5046390;28;20240;-32
2023/04/03 12:13:57;;;;;;;3.30;1.30;;;8.60;99.90;;;;;;5047896;28;20223;-33
2023/04/03 12:16:38;;;;;;;3.93;1.20;;;8.60;99.90;;;;;;5047991;28;20223;-34
2023/04/03 12:19:15;;;;;;;3.17;1.20;;;8.60;99.90;;;;;;5047771;28;20220;-35
2023/04/03 12:21:48;;;;;;;3.67;1.37;;;8.50;99.90;;;;;;5045964;28;20223;-35
2023/04/03 12:24:15;;;;;;;3.67;1.20;;;8.60;99.90;;;;;;5047377;28;20200;-32
2023/04/03 12:27:04;;;;;;;2.60;1.17;;;8.60;99.90;;;;;;5046470;28;20208;-32
2023/04/03 12:29:33;;;;;;;4.73;1.10;;;8.70;99.90;;;;;;5047532;28;20307;-35
2023/04/03 12:32:32;;;;;;;3.17;1.03;;;8.70;99.90;;;;;;5045824;28;20208;-32
2023/04/03 12:35:23;;;;;;;3.27;1.40;;;8.80;99.90;;;;;;5046331;28;20329;-32
2023/04/03 12:38:32;;;;;;;2.53;1.27;;;8.90;99.90;;;;;;5046339;28;20254;-32
2023/04/03 12:41:02;;;;;;;2.43;1.10;;;8.80;99.90;;;;;;5046102;28;20204;-32
2023/04/03 12:44:03;;;;;;;2.83;1.27;;;8.90;99.90;;;;;;5047717;28;20279;-32
2023/04/03 12:46:59;;;;;;;3.50;1.33;;;8.90;99.90;;;;;;5047657;28;20302;-32
2023/04/03 12:49:29;;;;;;;2.27;1.10;;;8.90;99.90;;;;;;5045433;28;20204;-32
2023/04/03 12:51:57;;;;;;;2.67;1.13;;;8.80;99.90;;;;;;5046133;28;20251;-32
2023/04/03 12:54:37;;;;;;;4.93;1.20;;;8.80;99.50;;;;;;5045579;28;20208;-32
2023/04/03 12:57:33;;;;;;;4.10;1.43;;;8.80;99.90;;;;;;5047571;28;20197;-32
2023/04/03 13:00:25;;;;;;;2.07;1.10;;;8.90;99.90;;;;;;5029618;28;20204;-31
2023/04/03 13:02:55;;;;;;;3.87;1.53;;;9.00;99.90;;;;;;5047091;28;20235;-32
2023/04/03 13:05:23;;;;;;;4.23;1.80;;;9.10;99.90;;;;;;5047048;28;20248;-33
2023/04/03 13:08:04;;;;;;;4.30;1.63;;;9.10;99.90;;;;;;5046867;28;20200;-32
2023/04/03 13:10:55;;;;;;;4.33;1.60;;;9.20;99.90;;;;;;5047574;28;20279;-33
2023/04/03 13:13:26;;;;;;;3.43;1.77;;;9.30;99.90;;;;;;5045899;28;20254;-33
2023/04/03 13:15:56;;;;;;;5.50;1.53;;;9.20;99.90;;;;;;5047159;28;20203;-32
2023/04/03 13:18:33;;;;;;;3.37;1.40;;;9.20;99.90;;;;;;5047572;28;20204;-32
2023/04/03 13:21:12;;;;;;;4.40;1.70;;;9.40;99.90;;;;;;5047491;28;20216;-35
2023/04/03 13:23:45;;;;;;;5.57;1.50;;;9.40;99.90;;;;;;5045913;28;20625;-35
2023/04/03 13:26:16;;;;;;;3.87;1.27;;;9.40;99.90;;;;;;5045417;28;20710;-35
2023/04/03 13:28:47;;;;;;;4.13;1.63;;;9.30;99.50;;;;;;5046716;28;20235;-35